sensor_id;sensor_type;location;lat;lon;timestamp;P1;durP1;ratioP1;P2;durP2;ratioP2
37791;SDS011;29527;55.766;37.570;2023-08-06T00:00:05;10.07;;;7.07;;
37791;SDS011;29527;55.766;37.570;2023-08-06T00:02:32;11.00;;;6.63;;
37791;SDS011;29527;55.766;37.570;2023-08-06T00:04:57;12.73;;;6.78;;
37791;SDS011;29527;55.766;37.570;2023-08-06T00:07:23;8.82;;;6.65;;
37791;SDS011;29527;55.766;37.570;2023-08-06T00:09:48;11.88;;;6.90;;
37791;SDS011;29527;55.766;37.570;2023-08-06T00:12:14;8.77;;;7.18;;
37791;SDS011;29527;55.766;37.570;2023-08-06T00:14:39;10.32;;;6.65;;
37791;SDS011;29527;55.766;37.570;2023-08-06T00:17:05;10.85;;;6.10;;
37791;SDS011;29527;55.766;37.570;2023-08-06T00:19:31;8.48;;;5.60;;
37791;SDS011;29527;55.766;37.570;2023-08-06T00:21:57;11.15;;;6.30;;
37791;SDS011;29527;55.766;37.570;2023-08-06T00:24:23;10.55;;;6.50;;
37791;SDS011;29527;55.766;37.570;2023-08-06T00:26:48;10.73;;;5.80;;
37791;SDS011;29527;55.766;37.570;2023-08-06T00:29:14;11.20;;;5.85;;
37791;SDS011;29527;55.766;37.570;2023-08-06T00:31:39;10.43;;;6.07;;
37791;SDS011;29527;55.766;37.570;2023-08-06T00:34:05;8.82;;;5.63;;
37791;SDS011;29527;55.766;37.570;2023-08-06T00:36:30;8.85;;;6.22;;
37791;SDS011;29527;55.766;37.570;2023-08-06T00:38:56;14.60;;;5.85;;
37791;SDS011;29527;55.766;37.570;2023-08-06T00:41:21;11.05;;;6.07;;
37791;SDS011;29527;55.766;37.570;2023-08-06T00:43:47;11.90;;;5.72;;
37791;SDS011;29527;55.766;37.570;2023-08-06T00:46:13;9.45;;;6.10;;
37791;SDS011;29527;55.766;37.570;2023-08-06T00:48:39;7.65;;;5.68;;
37791;SDS011;29527;55.766;37.570;2023-08-06T00:51:05;10.27;;;6.25;;
37791;SDS011;29527;55.766;37.570;2023-08-06T00:53:31;10.52;;;5.95;;
37791;SDS011;29527;55.766;37.570;2023-08-06T00:55:57;12.98;;;6.95;;
37791;SDS011;29527;55.766;37.570;2023-08-06T00:58:23;12.30;;;7.38;;
37791;SDS011;29527;55.766;37.570;2023-08-06T01:00:49;12.23;;;6.88;;
37791;SDS011;29527;55.766;37.570;2023-08-06T01:03:15;12.20;;;6.90;;
37791;SDS011;29527;55.766;37.570;2023-08-06T01:05:41;15.55;;;7.47;;
37791;SDS011;29527;55.766;37.570;2023-08-06T01:10:49;16.75;;;7.60;;
37791;SDS011;29527;55.766;37.570;2023-08-06T01:13:24;19.05;;;9.38;;
37791;SDS011;29527;55.766;37.570;2023-08-06T01:16:18;13.57;;;8.15;;
37791;SDS011;29527;55.766;37.570;2023-08-06T01:18:46;17.20;;;8.07;;
37791;SDS011;29527;55.766;37.570;2023-08-06T01:21:18;12.00;;;8.15;;
37791;SDS011;29527;55.766;37.570;2023-08-06T01:23:44;14.00;;;8.20;;
37791;SDS011;29527;55.766;37.570;2023-08-06T01:31:37;14.63;;;8.10;;
37791;SDS011;29527;55.766;37.570;2023-08-06T01:34:05;11.88;;;7.68;;
37791;SDS011;29527;55.766;37.570;2023-08-06T01:36:34;18.80;;;8.23;;
37791;SDS011;29527;55.766;37.570;2023-08-06T01:39:01;13.93;;;8.20;;
37791;SDS011;29527;55.766;37.570;2023-08-06T01:41:26;13.75;;;7.63;;
37791;SDS011;29527;55.766;37.570;2023-08-06T01:43:52;13.05;;;7.78;;
37791;SDS011;29527;55.766;37.570;2023-08-06T01:46:17;14.32;;;8.05;;
37791;SDS011;29527;55.766;37.570;2023-08-06T01:48:43;11.82;;;8.40;;
37791;SDS011;29527;55.766;37.570;2023-08-06T01:51:09;11.80;;;7.68;;
37791;SDS011;29527;55.766;37.570;2023-08-06T01:53:34;12.52;;;7.55;;
37791;SDS011;29527;55.766;37.570;2023-08-06T01:56:00;12.35;;;7.57;;
37791;SDS011;29527;55.766;37.570;2023-08-06T01:58:26;13.45;;;7.40;;
37791;SDS011;29527;55.766;37.570;2023-08-06T02:00:51;12.75;;;7.63;;
37791;SDS011;29527;55.766;37.570;2023-08-06T02:03:17;13.52;;;7.28;;
37791;SDS011;29527;55.766;37.570;2023-08-06T02:05:42;12.90;;;8.13;;
37791;SDS011;29527;55.766;37.570;2023-08-06T02:08:08;13.88;;;7.97;;
37791;SDS011;29527;55.766;37.570;2023-08-06T02:10:33;13.80;;;7.68;;
37791;SDS011;29527;55.766;37.570;2023-08-06T02:12:59;10.30;;;7.68;;
37791;SDS011;29527;55.766;37.570;2023-08-06T02:15:25;11.30;;;7.38;;
37791;SDS011;29527;55.766;37.570;2023-08-06T02:17:51;14.35;;;7.32;;
37791;SDS011;29527;55.766;37.570;2023-08-06T02:20:36;16.63;;;7.35;;
37791;SDS011;29527;55.766;37.570;2023-08-06T02:23:02;12.35;;;7.63;;
37791;SDS011;29527;55.766;37.570;2023-08-06T02:25:27;11.30;;;7.45;;
37791;SDS011;29527;55.766;37.570;2023-08-06T02:27:53;12.93;;;7.20;;
37791;SDS011;29527;55.766;37.570;2023-08-06T02:30:18;9.20;;;6.85;;
37791;SDS011;29527;55.766;37.570;2023-08-06T02:32:44;11.10;;;7.07;;
37791;SDS011;29527;55.766;37.570;2023-08-06T02:35:09;11.77;;;6.90;;
37791;SDS011;29527;55.766;37.570;2023-08-06T02:37:35;13.13;;;7.25;;
37791;SDS011;29527;55.766;37.570;2023-08-06T02:40:00;14.93;;;7.57;;
37791;SDS011;29527;55.766;37.570;2023-08-06T02:42:29;9.98;;;6.72;;
37791;SDS011;29527;55.766;37.570;2023-08-06T02:44:55;9.77;;;7.10;;
37791;SDS011;29527;55.766;37.570;2023-08-06T02:47:20;9.38;;;6.78;;
37791;SDS011;29527;55.766;37.570;2023-08-06T02:49:46;10.23;;;6.85;;
37791;SDS011;29527;55.766;37.570;2023-08-06T02:52:12;10.93;;;6.97;;
37791;SDS011;29527;55.766;37.570;2023-08-06T02:54:37;14.40;;;7.07;;
37791;SDS011;29527;55.766;37.570;2023-08-06T02:57:04;16.88;;;7.00;;
37791;SDS011;29527;55.766;37.570;2023-08-06T02:59:30;11.68;;;6.38;;
37791;SDS011;29527;55.766;37.570;2023-08-06T03:01:56;13.00;;;6.95;;
37791;SDS011;29527;55.766;37.570;2023-08-06T03:04:21;11.90;;;6.90;;
37791;SDS011;29527;55.766;37.570;2023-08-06T03:06:46;12.65;;;6.60;;
37791;SDS011;29527;55.766;37.570;2023-08-06T03:09:14;13.50;;;6.97;;
37791;SDS011;29527;55.766;37.570;2023-08-06T03:11:39;9.63;;;7.05;;
37791;SDS011;29527;55.766;37.570;2023-08-06T03:14:05;11.38;;;7.53;;
37791;SDS011;29527;55.766;37.570;2023-08-06T03:16:30;11.73;;;7.00;;
37791;SDS011;29527;55.766;37.570;2023-08-06T03:18:56;13.93;;;6.97;;
37791;SDS011;29527;55.766;37.570;2023-08-06T03:21:21;11.80;;;6.95;;
37791;SDS011;29527;55.766;37.570;2023-08-06T03:23:47;12.73;;;7.28;;
37791;SDS011;29527;55.766;37.570;2023-08-06T03:26:14;12.45;;;6.93;;
37791;SDS011;29527;55.766;37.570;2023-08-06T03:28:39;12.55;;;7.00;;
37791;SDS011;29527;55.766;37.570;2023-08-06T03:31:05;9.77;;;7.47;;
37791;SDS011;29527;55.766;37.570;2023-08-06T03:33:30;12.93;;;6.95;;
37791;SDS011;29527;55.766;37.570;2023-08-06T03:35:56;13.40;;;6.90;;
37791;SDS011;29527;55.766;37.570;2023-08-06T03:38:22;10.02;;;6.63;;
37791;SDS011;29527;55.766;37.570;2023-08-06T03:40:48;11.65;;;8.15;;
37791;SDS011;29527;55.766;37.570;2023-08-06T03:43:13;16.65;;;7.80;;
37791;SDS011;29527;55.766;37.570;2023-08-06T03:45:40;13.07;;;7.68;;
37791;SDS011;29527;55.766;37.570;2023-08-06T03:48:05;13.80;;;7.53;;
37791;SDS011;29527;55.766;37.570;2023-08-06T03:50:31;9.90;;;7.32;;
37791;SDS011;29527;55.766;37.570;2023-08-06T03:52:56;13.50;;;7.22;;
37791;SDS011;29527;55.766;37.570;2023-08-06T03:55:22;13.25;;;7.57;;
37791;SDS011;29527;55.766;37.570;2023-08-06T03:57:47;11.18;;;7.50;;
37791;SDS011;29527;55.766;37.570;2023-08-06T04:00:13;8.43;;;6.55;;
37791;SDS011;29527;55.766;37.570;2023-08-06T04:02:39;9.73;;;6.70;;
37791;SDS011;29527;55.766;37.570;2023-08-06T04:05:04;13.35;;;6.47;;
37791;SDS011;29527;55.766;37.570;2023-08-06T04:07:30;17.45;;;6.80;;
37791;SDS011;29527;55.766;37.570;2023-08-06T04:10:00;8.95;;;6.32;;
37791;SDS011;29527;55.766;37.570;2023-08-06T04:12:27;11.02;;;6.25;;
37791;SDS011;29527;55.766;37.570;2023-08-06T04:14:53;11.85;;;6.68;;
37791;SDS011;29527;55.766;37.570;2023-08-06T04:17:20;11.85;;;6.47;;
37791;SDS011;29527;55.766;37.570;2023-08-06T04:19:49;12.18;;;6.63;;
37791;SDS011;29527;55.766;37.570;2023-08-06T04:22:16;12.38;;;7.32;;
37791;SDS011;29527;55.766;37.570;2023-08-06T04:24:41;12.75;;;6.38;;
37791;SDS011;29527;55.766;37.570;2023-08-06T04:27:08;15.27;;;6.90;;
37791;SDS011;29527;55.766;37.570;2023-08-06T04:29:35;14.77;;;6.88;;
37791;SDS011;29527;55.766;37.570;2023-08-06T04:32:01;10.82;;;6.78;;
37791;SDS011;29527;55.766;37.570;2023-08-06T04:34:27;15.45;;;6.88;;
37791;SDS011;29527;55.766;37.570;2023-08-06T04:36:52;10.45;;;6.90;;
37791;SDS011;29527;55.766;37.570;2023-08-06T04:39:18;9.68;;;6.45;;
37791;SDS011;29527;55.766;37.570;2023-08-06T04:41:43;10.18;;;6.45;;
37791;SDS011;29527;55.766;37.570;2023-08-06T04:44:09;10.25;;;6.78;;
37791;SDS011;29527;55.766;37.570;2023-08-06T04:46:35;10.43;;;6.90;;
37791;SDS011;29527;55.766;37.570;2023-08-06T04:49:00;10.45;;;6.18;;
37791;SDS011;29527;55.766;37.570;2023-08-06T04:51:26;12.13;;;6.47;;
37791;SDS011;29527;55.766;37.570;2023-08-06T04:53:51;11.70;;;6.72;;
37791;SDS011;29527;55.766;37.570;2023-08-06T04:56:17;10.93;;;6.63;;
37791;SDS011;29527;55.766;37.570;2023-08-06T04:58:42;10.48;;;7.00;;
37791;SDS011;29527;55.766;37.570;2023-08-06T05:01:08;12.02;;;6.50;;
37791;SDS011;29527;55.766;37.570;2023-08-06T05:03:33;9.07;;;5.95;;
37791;SDS011;29527;55.766;37.570;2023-08-06T05:05:59;12.35;;;6.35;;
37791;SDS011;29527;55.766;37.570;2023-08-06T05:08:24;11.90;;;6.18;;
37791;SDS011;29527;55.766;37.570;2023-08-06T05:10:50;8.45;;;5.72;;
37791;SDS011;29527;55.766;37.570;2023-08-06T05:13:15;10.90;;;6.43;;
37791;SDS011;29527;55.766;37.570;2023-08-06T05:15:41;11.50;;;6.20;;
37791;SDS011;29527;55.766;37.570;2023-08-06T05:18:10;10.13;;;6.20;;
37791;SDS011;29527;55.766;37.570;2023-08-06T05:20:36;10.18;;;5.85;;
37791;SDS011;29527;55.766;37.570;2023-08-06T05:23:02;11.35;;;5.22;;
37791;SDS011;29527;55.766;37.570;2023-08-06T05:25:28;11.02;;;5.65;;
37791;SDS011;29527;55.766;37.570;2023-08-06T05:27:53;9.82;;;5.35;;
37791;SDS011;29527;55.766;37.570;2023-08-06T05:30:19;12.50;;;5.85;;
37791;SDS011;29527;55.766;37.570;2023-08-06T05:32:44;10.10;;;4.78;;
37791;SDS011;29527;55.766;37.570;2023-08-06T05:35:10;10.43;;;5.00;;
37791;SDS011;29527;55.766;37.570;2023-08-06T05:37:35;9.02;;;5.82;;
37791;SDS011;29527;55.766;37.570;2023-08-06T05:40:01;6.18;;;5.07;;
37791;SDS011;29527;55.766;37.570;2023-08-06T05:42:31;11.13;;;5.35;;
37791;SDS011;29527;55.766;37.570;2023-08-06T05:44:56;9.07;;;4.95;;
37791;SDS011;29527;55.766;37.570;2023-08-06T05:47:22;11.07;;;5.15;;
37791;SDS011;29527;55.766;37.570;2023-08-06T05:49:47;10.15;;;5.63;;
37791;SDS011;29527;55.766;37.570;2023-08-06T05:52:13;10.98;;;5.50;;
37791;SDS011;29527;55.766;37.570;2023-08-06T05:54:38;8.15;;;5.00;;
37791;SDS011;29527;55.766;37.570;2023-08-06T05:57:05;8.25;;;4.95;;
37791;SDS011;29527;55.766;37.570;2023-08-06T05:59:31;10.68;;;5.90;;
37791;SDS011;29527;55.766;37.570;2023-08-06T06:01:57;9.80;;;5.13;;
37791;SDS011;29527;55.766;37.570;2023-08-06T06:04:22;12.48;;;5.50;;
37791;SDS011;29527;55.766;37.570;2023-08-06T06:06:48;9.00;;;5.55;;
37791;SDS011;29527;55.766;37.570;2023-08-06T06:09:13;13.10;;;5.63;;
37791;SDS011;29527;55.766;37.570;2023-08-06T06:11:39;9.55;;;5.53;;
37791;SDS011;29527;55.766;37.570;2023-08-06T06:14:04;8.07;;;5.25;;
37791;SDS011;29527;55.766;37.570;2023-08-06T06:16:30;12.73;;;5.65;;
37791;SDS011;29527;55.766;37.570;2023-08-06T06:18:55;7.40;;;5.20;;
37791;SDS011;29527;55.766;37.570;2023-08-06T06:21:23;6.82;;;4.68;;
37791;SDS011;29527;55.766;37.570;2023-08-06T06:23:49;9.68;;;4.95;;
37791;SDS011;29527;55.766;37.570;2023-08-06T06:26:17;8.98;;;5.15;;
37791;SDS011;29527;55.766;37.570;2023-08-06T06:28:43;8.95;;;5.30;;
37791;SDS011;29527;55.766;37.570;2023-08-06T06:31:08;6.38;;;5.68;;
37791;SDS011;29527;55.766;37.570;2023-08-06T06:33:34;9.70;;;5.10;;
37791;SDS011;29527;55.766;37.570;2023-08-06T06:36:00;8.02;;;5.28;;
37791;SDS011;29527;55.766;37.570;2023-08-06T06:38:28;10.07;;;5.68;;
37791;SDS011;29527;55.766;37.570;2023-08-06T06:40:54;6.03;;;5.10;;
37791;SDS011;29527;55.766;37.570;2023-08-06T06:43:20;8.02;;;5.65;;
37791;SDS011;29527;55.766;37.570;2023-08-06T06:45:46;9.82;;;5.97;;
37791;SDS011;29527;55.766;37.570;2023-08-06T06:48:11;7.30;;;5.05;;
37791;SDS011;29527;55.766;37.570;2023-08-06T06:50:37;10.87;;;5.30;;
37791;SDS011;29527;55.766;37.570;2023-08-06T06:53:04;8.90;;;5.28;;
37791;SDS011;29527;55.766;37.570;2023-08-06T06:55:30;8.93;;;5.68;;
37791;SDS011;29527;55.766;37.570;2023-08-06T06:57:55;7.78;;;5.90;;
37791;SDS011;29527;55.766;37.570;2023-08-06T07:00:20;7.57;;;6.30;;
37791;SDS011;29527;55.766;37.570;2023-08-06T07:02:46;6.47;;;5.87;;
37791;SDS011;29527;55.766;37.570;2023-08-06T07:05:11;6.95;;;6.15;;
37791;SDS011;29527;55.766;37.570;2023-08-06T07:07:37;8.18;;;6.13;;
37791;SDS011;29527;55.766;37.570;2023-08-06T07:10:03;6.88;;;6.30;;
37791;SDS011;29527;55.766;37.570;2023-08-06T07:12:29;9.15;;;6.50;;
37791;SDS011;29527;55.766;37.570;2023-08-06T07:14:54;8.67;;;6.77;;
37791;SDS011;29527;55.766;37.570;2023-08-06T07:17:20;7.70;;;7.05;;
37791;SDS011;29527;55.766;37.570;2023-08-06T07:19:45;7.87;;;6.83;;
37791;SDS011;29527;55.766;37.570;2023-08-06T07:22:11;7.18;;;6.47;;
37791;SDS011;29527;55.766;37.570;2023-08-06T07:24:36;7.40;;;6.40;;
37791;SDS011;29527;55.766;37.570;2023-08-06T07:27:02;7.37;;;5.93;;
37791;SDS011;29527;55.766;37.570;2023-08-06T07:29:28;7.07;;;6.22;;
37791;SDS011;29527;55.766;37.570;2023-08-06T07:31:53;7.20;;;6.63;;
37791;SDS011;29527;55.766;37.570;2023-08-06T07:34:20;7.70;;;6.45;;
37791;SDS011;29527;55.766;37.570;2023-08-06T07:36:46;8.10;;;7.40;;
37791;SDS011;29527;55.766;37.570;2023-08-06T07:39:12;7.45;;;6.95;;
37791;SDS011;29527;55.766;37.570;2023-08-06T07:41:38;9.00;;;8.27;;
37791;SDS011;29527;55.766;37.570;2023-08-06T07:44:04;8.85;;;8.05;;
37791;SDS011;29527;55.766;37.570;2023-08-06T07:46:29;9.30;;;8.52;;
37791;SDS011;29527;55.766;37.570;2023-08-06T07:48:55;9.48;;;8.70;;
37791;SDS011;29527;55.766;37.570;2023-08-06T07:51:20;10.68;;;9.77;;
37791;SDS011;29527;55.766;37.570;2023-08-06T07:53:46;10.48;;;8.85;;
37791;SDS011;29527;55.766;37.570;2023-08-06T07:56:12;9.45;;;8.77;;
37791;SDS011;29527;55.766;37.570;2023-08-06T07:58:37;8.85;;;7.97;;
37791;SDS011;29527;55.766;37.570;2023-08-06T08:01:03;8.30;;;7.07;;
37791;SDS011;29527;55.766;37.570;2023-08-06T08:03:28;10.70;;;8.45;;
37791;SDS011;29527;55.766;37.570;2023-08-06T08:05:55;7.32;;;6.72;;
37791;SDS011;29527;55.766;37.570;2023-08-06T08:08:24;7.47;;;6.75;;
37791;SDS011;29527;55.766;37.570;2023-08-06T08:10:50;6.90;;;6.18;;
37791;SDS011;29527;55.766;37.570;2023-08-06T08:13:15;6.47;;;5.88;;
37791;SDS011;29527;55.766;37.570;2023-08-06T08:15:40;8.65;;;5.60;;
37791;SDS011;29527;55.766;37.570;2023-08-06T08:18:06;6.28;;;4.60;;
37791;SDS011;29527;55.766;37.570;2023-08-06T08:20:31;9.77;;;4.80;;
37791;SDS011;29527;55.766;37.570;2023-08-06T08:22:58;6.63;;;4.28;;
37791;SDS011;29527;55.766;37.570;2023-08-06T08:25:25;3.45;;;3.15;;
37791;SDS011;29527;55.766;37.570;2023-08-06T08:27:52;6.50;;;3.28;;
37791;SDS011;29527;55.766;37.570;2023-08-06T08:30:18;5.78;;;3.58;;
37791;SDS011;29527;55.766;37.570;2023-08-06T08:32:43;5.25;;;3.25;;
37791;SDS011;29527;55.766;37.570;2023-08-06T08:35:09;4.95;;;3.70;;
37791;SDS011;29527;55.766;37.570;2023-08-06T08:37:37;6.53;;;4.22;;
37791;SDS011;29527;55.766;37.570;2023-08-06T08:40:03;7.50;;;4.47;;
37791;SDS011;29527;55.766;37.570;2023-08-06T08:42:30;6.18;;;4.63;;
37791;SDS011;29527;55.766;37.570;2023-08-06T08:44:55;8.48;;;4.50;;
37791;SDS011;29527;55.766;37.570;2023-08-06T08:47:22;8.02;;;4.57;;
37791;SDS011;29527;55.766;37.570;2023-08-06T08:49:49;8.07;;;4.85;;
37791;SDS011;29527;55.766;37.570;2023-08-06T08:52:19;9.60;;;4.88;;
37791;SDS011;29527;55.766;37.570;2023-08-06T08:54:46;10.32;;;5.22;;
37791;SDS011;29527;55.766;37.570;2023-08-06T08:57:17;10.95;;;5.32;;
37791;SDS011;29527;55.766;37.570;2023-08-06T08:59:42;6.07;;;5.18;;
37791;SDS011;29527;55.766;37.570;2023-08-06T09:02:08;6.35;;;5.03;;
37791;SDS011;29527;55.766;37.570;2023-08-06T09:04:37;6.03;;;4.97;;
37791;SDS011;29527;55.766;37.570;2023-08-06T09:07:04;10.68;;;4.68;;
37791;SDS011;29527;55.766;37.570;2023-08-06T09:09:33;10.23;;;5.30;;
37791;SDS011;29527;55.766;37.570;2023-08-06T09:12:05;12.43;;;4.97;;
37791;SDS011;29527;55.766;37.570;2023-08-06T09:14:37;8.05;;;5.03;;
37791;SDS011;29527;55.766;37.570;2023-08-06T09:17:03;8.57;;;4.88;;
37791;SDS011;29527;55.766;37.570;2023-08-06T09:19:31;9.00;;;5.25;;
37791;SDS011;29527;55.766;37.570;2023-08-06T09:21:56;8.68;;;5.38;;
37791;SDS011;29527;55.766;37.570;2023-08-06T09:24:22;9.57;;;5.18;;
37791;SDS011;29527;55.766;37.570;2023-08-06T09:26:48;8.27;;;4.90;;
37791;SDS011;29527;55.766;37.570;2023-08-06T09:29:13;9.73;;;5.10;;
37791;SDS011;29527;55.766;37.570;2023-08-06T09:31:44;7.38;;;4.78;;
37791;SDS011;29527;55.766;37.570;2023-08-06T09:34:11;9.60;;;5.40;;
37791;SDS011;29527;55.766;37.570;2023-08-06T09:36:41;9.85;;;5.38;;
37791;SDS011;29527;55.766;37.570;2023-08-06T09:39:12;7.50;;;4.93;;
37791;SDS011;29527;55.766;37.570;2023-08-06T09:41:39;9.43;;;4.97;;
37791;SDS011;29527;55.766;37.570;2023-08-06T09:44:05;10.00;;;5.50;;
37791;SDS011;29527;55.766;37.570;2023-08-06T09:46:31;5.68;;;5.15;;
37791;SDS011;29527;55.766;37.570;2023-08-06T09:48:58;9.35;;;5.40;;
37791;SDS011;29527;55.766;37.570;2023-08-06T09:51:23;12.57;;;4.93;;
37791;SDS011;29527;55.766;37.570;2023-08-06T09:53:49;6.50;;;5.18;;
37791;SDS011;29527;55.766;37.570;2023-08-06T09:56:16;8.50;;;4.70;;
37791;SDS011;29527;55.766;37.570;2023-08-06T09:58:42;11.55;;;5.05;;
37791;SDS011;29527;55.766;37.570;2023-08-06T10:01:09;6.07;;;5.43;;
37791;SDS011;29527;55.766;37.570;2023-08-06T10:03:36;9.60;;;5.05;;
37791;SDS011;29527;55.766;37.570;2023-08-06T10:06:02;13.35;;;4.90;;
37791;SDS011;29527;55.766;37.570;2023-08-06T10:08:32;6.10;;;4.80;;
37791;SDS011;29527;55.766;37.570;2023-08-06T10:10:57;8.15;;;4.68;;
37791;SDS011;29527;55.766;37.570;2023-08-06T10:13:23;7.90;;;5.35;;
37791;SDS011;29527;55.766;37.570;2023-08-06T10:15:50;10.02;;;4.78;;
37791;SDS011;29527;55.766;37.570;2023-08-06T10:18:17;9.18;;;5.38;;
37791;SDS011;29527;55.766;37.570;2023-08-06T10:20:46;7.53;;;4.90;;
37791;SDS011;29527;55.766;37.570;2023-08-06T10:23:12;12.35;;;5.43;;
37791;SDS011;29527;55.766;37.570;2023-08-06T10:25:42;8.73;;;5.25;;
37791;SDS011;29527;55.766;37.570;2023-08-06T10:28:08;5.85;;;5.25;;
37791;SDS011;29527;55.766;37.570;2023-08-06T10:30:41;6.97;;;5.28;;
37791;SDS011;29527;55.766;37.570;2023-08-06T10:33:08;11.45;;;5.25;;
37791;SDS011;29527;55.766;37.570;2023-08-06T10:38:12;8.13;;;5.93;;
37791;SDS011;29527;55.766;37.570;2023-08-06T10:40:40;11.82;;;5.68;;
37791;SDS011;29527;55.766;37.570;2023-08-06T10:45:55;6.47;;;5.18;;
37791;SDS011;29527;55.766;37.570;2023-08-06T10:48:36;8.23;;;5.80;;
37791;SDS011;29527;55.766;37.570;2023-08-06T10:51:07;8.70;;;5.10;;
37791;SDS011;29527;55.766;37.570;2023-08-06T10:53:34;7.07;;;5.25;;
37791;SDS011;29527;55.766;37.570;2023-08-06T10:56:00;9.00;;;5.50;;
37791;SDS011;29527;55.766;37.570;2023-08-06T10:58:33;11.07;;;5.53;;
37791;SDS011;29527;55.766;37.570;2023-08-06T11:00:59;8.20;;;5.80;;
37791;SDS011;29527;55.766;37.570;2023-08-06T11:03:26;8.40;;;5.50;;
37791;SDS011;29527;55.766;37.570;2023-08-06T11:05:52;11.15;;;5.80;;
37791;SDS011;29527;55.766;37.570;2023-08-06T11:08:27;8.43;;;5.93;;
37791;SDS011;29527;55.766;37.570;2023-08-06T11:10:54;8.35;;;5.55;;
37791;SDS011;29527;55.766;37.570;2023-08-06T11:13:20;9.10;;;5.28;;
37791;SDS011;29527;55.766;37.570;2023-08-06T11:15:46;9.40;;;5.65;;
37791;SDS011;29527;55.766;37.570;2023-08-06T11:18:12;8.18;;;5.82;;
37791;SDS011;29527;55.766;37.570;2023-08-06T11:20:38;6.25;;;5.68;;
37791;SDS011;29527;55.766;37.570;2023-08-06T11:23:04;6.95;;;5.32;;
37791;SDS011;29527;55.766;37.570;2023-08-06T11:25:30;9.82;;;5.47;;
37791;SDS011;29527;55.766;37.570;2023-08-06T11:27:56;8.60;;;4.93;;
37791;SDS011;29527;55.766;37.570;2023-08-06T11:30:21;9.27;;;5.40;;
37791;SDS011;29527;55.766;37.570;2023-08-06T11:32:47;8.70;;;5.00;;
37791;SDS011;29527;55.766;37.570;2023-08-06T11:35:14;8.18;;;5.00;;
37791;SDS011;29527;55.766;37.570;2023-08-06T11:37:43;9.85;;;5.25;;
37791;SDS011;29527;55.766;37.570;2023-08-06T11:40:10;11.13;;;5.40;;
37791;SDS011;29527;55.766;37.570;2023-08-06T11:42:36;10.43;;;5.55;;
37791;SDS011;29527;55.766;37.570;2023-08-06T11:45:02;7.85;;;4.82;;
37791;SDS011;29527;55.766;37.570;2023-08-06T11:47:31;8.50;;;5.40;;
37791;SDS011;29527;55.766;37.570;2023-08-06T11:49:57;8.93;;;5.45;;
37791;SDS011;29527;55.766;37.570;2023-08-06T11:52:23;9.73;;;5.35;;
37791;SDS011;29527;55.766;37.570;2023-08-06T11:55:06;9.40;;;6.60;;
37791;SDS011;29527;55.766;37.570;2023-08-06T11:57:40;7.13;;;5.50;;
37791;SDS011;29527;55.766;37.570;2023-08-06T12:00:10;11.95;;;6.30;;
37791;SDS011;29527;55.766;37.570;2023-08-06T12:02:38;9.98;;;5.30;;
37791;SDS011;29527;55.766;37.570;2023-08-06T12:07:36;7.93;;;5.25;;
37791;SDS011;29527;55.766;37.570;2023-08-06T12:10:03;8.25;;;5.38;;
37791;SDS011;29527;55.766;37.570;2023-08-06T12:12:30;6.55;;;5.65;;
37791;SDS011;29527;55.766;37.570;2023-08-06T12:14:56;10.45;;;5.50;;
37791;SDS011;29527;55.766;37.570;2023-08-06T12:17:25;8.38;;;5.50;;
37791;SDS011;29527;55.766;37.570;2023-08-06T12:19:51;10.07;;;5.30;;
37791;SDS011;29527;55.766;37.570;2023-08-06T12:22:17;6.30;;;5.53;;
37791;SDS011;29527;55.766;37.570;2023-08-06T12:24:43;9.13;;;5.63;;
37791;SDS011;29527;55.766;37.570;2023-08-06T12:27:11;6.80;;;4.93;;
37791;SDS011;29527;55.766;37.570;2023-08-06T12:29:40;7.35;;;5.15;;
37791;SDS011;29527;55.766;37.570;2023-08-06T12:32:06;11.13;;;5.80;;
37791;SDS011;29527;55.766;37.570;2023-08-06T12:34:32;7.05;;;5.35;;
37791;SDS011;29527;55.766;37.570;2023-08-06T12:36:57;8.95;;;5.35;;
37791;SDS011;29527;55.766;37.570;2023-08-06T12:39:23;6.50;;;5.32;;
37791;SDS011;29527;55.766;37.570;2023-08-06T12:41:49;7.63;;;5.25;;
37791;SDS011;29527;55.766;37.570;2023-08-06T12:44:14;9.32;;;5.30;;
37791;SDS011;29527;55.766;37.570;2023-08-06T12:46:40;9.57;;;5.40;;
37791;SDS011;29527;55.766;37.570;2023-08-06T12:49:05;8.95;;;5.22;;
37791;SDS011;29527;55.766;37.570;2023-08-06T12:51:31;10.18;;;5.50;;
37791;SDS011;29527;55.766;37.570;2023-08-06T12:53:59;10.05;;;5.60;;
37791;SDS011;29527;55.766;37.570;2023-08-06T12:56:25;10.48;;;5.60;;
37791;SDS011;29527;55.766;37.570;2023-08-06T12:58:50;11.88;;;5.60;;
37791;SDS011;29527;55.766;37.570;2023-08-06T13:01:16;8.23;;;5.15;;
37791;SDS011;29527;55.766;37.570;2023-08-06T13:03:41;9.73;;;5.32;;
37791;SDS011;29527;55.766;37.570;2023-08-06T13:06:06;8.88;;;5.22;;
37791;SDS011;29527;55.766;37.570;2023-08-06T13:08:34;12.57;;;5.43;;
37791;SDS011;29527;55.766;37.570;2023-08-06T13:11:00;8.05;;;5.07;;
37791;SDS011;29527;55.766;37.570;2023-08-06T13:13:26;7.28;;;5.18;;
37791;SDS011;29527;55.766;37.570;2023-08-06T13:15:52;6.30;;;5.68;;
37791;SDS011;29527;55.766;37.570;2023-08-06T13:18:17;11.00;;;5.53;;
37791;SDS011;29527;55.766;37.570;2023-08-06T13:20:43;8.43;;;5.30;;
37791;SDS011;29527;55.766;37.570;2023-08-06T13:23:09;10.15;;;5.57;;
37791;SDS011;29527;55.766;37.570;2023-08-06T13:25:34;9.73;;;5.38;;
37791;SDS011;29527;55.766;37.570;2023-08-06T13:28:02;10.13;;;4.70;;
37791;SDS011;29527;55.766;37.570;2023-08-06T13:30:28;7.43;;;5.07;;
37791;SDS011;29527;55.766;37.570;2023-08-06T13:32:54;9.35;;;5.60;;
37791;SDS011;29527;55.766;37.570;2023-08-06T13:35:22;6.07;;;5.05;;
37791;SDS011;29527;55.766;37.570;2023-08-06T13:37:48;9.80;;;5.25;;
37791;SDS011;29527;55.766;37.570;2023-08-06T13:40:14;8.02;;;5.15;;
37791;SDS011;29527;55.766;37.570;2023-08-06T13:42:39;12.05;;;5.15;;
37791;SDS011;29527;55.766;37.570;2023-08-06T13:45:05;11.48;;;5.00;;
37791;SDS011;29527;55.766;37.570;2023-08-06T13:47:32;7.55;;;4.68;;
37791;SDS011;29527;55.766;37.570;2023-08-06T13:49:57;11.73;;;5.13;;
37791;SDS011;29527;55.766;37.570;2023-08-06T13:52:24;8.73;;;5.38;;
37791;SDS011;29527;55.766;37.570;2023-08-06T13:54:50;5.85;;;5.22;;
37791;SDS011;29527;55.766;37.570;2023-08-06T13:57:16;5.90;;;5.32;;
37791;SDS011;29527;55.766;37.570;2023-08-06T13:59:42;8.88;;;5.45;;
37791;SDS011;29527;55.766;37.570;2023-08-06T14:02:09;12.00;;;5.80;;
37791;SDS011;29527;55.766;37.570;2023-08-06T14:04:35;9.65;;;5.35;;
37791;SDS011;29527;55.766;37.570;2023-08-06T14:07:20;5.32;;;4.72;;
37791;SDS011;29527;55.766;37.570;2023-08-06T14:09:46;6.80;;;4.78;;
37791;SDS011;29527;55.766;37.570;2023-08-06T14:12:12;7.50;;;4.97;;
37791;SDS011;29527;55.766;37.570;2023-08-06T14:14:39;7.75;;;5.20;;
37791;SDS011;29527;55.766;37.570;2023-08-06T14:17:05;6.00;;;5.25;;
37791;SDS011;29527;55.766;37.570;2023-08-06T14:19:30;9.95;;;5.60;;
37791;SDS011;29527;55.766;37.570;2023-08-06T14:21:56;11.82;;;5.57;;
37791;SDS011;29527;55.766;37.570;2023-08-06T14:24:21;10.07;;;5.65;;
37791;SDS011;29527;55.766;37.570;2023-08-06T14:26:47;9.95;;;5.93;;
37791;SDS011;29527;55.766;37.570;2023-08-06T14:29:12;11.02;;;5.45;;
37791;SDS011;29527;55.766;37.570;2023-08-06T14:31:39;8.75;;;5.68;;
37791;SDS011;29527;55.766;37.570;2023-08-06T14:34:05;8.98;;;5.50;;
37791;SDS011;29527;55.766;37.570;2023-08-06T14:36:31;10.98;;;5.40;;
37791;SDS011;29527;55.766;37.570;2023-08-06T14:38:57;18.77;;;7.20;;